createdAt,value
2022-09-16T00:01:24.211Z,17.29
2022-09-16T00:03:55.730Z,17.28
2022-09-16T00:06:29.389Z,17.34
2022-09-16T00:09:01.084Z,17.34
2022-09-16T00:11:29.325Z,17.27
2022-09-16T00:13:58.630Z,17.21
2022-09-16T00:16:29.202Z,17.25
2022-09-16T00:19:00.033Z,17.24
2022-09-16T00:21:29.680Z,17.26
2022-09-16T00:23:58.138Z,17.27
2022-09-16T00:26:26.636Z,17.28
2022-09-16T00:28:54.322Z,17.29
2022-09-16T00:31:23.630Z,17.16
2022-09-16T00:33:51.861Z,17.14
2022-09-16T00:36:21.234Z,17.09
2022-09-16T00:38:52.860Z,17.05
2022-09-16T00:41:28.240Z,17.11
2022-09-16T00:43:59.110Z,17.13
2022-09-16T00:46:35.480Z,17.13
2022-09-16T00:49:08.166Z,17.11
2022-09-16T00:51:36.479Z,17.07
2022-09-16T00:54:09.655Z,17.03
2022-09-16T00:56:42.306Z,16.89
2022-09-16T00:59:15.106Z,16.67
2022-09-16T01:01:45.551Z,16.55
2022-09-16T01:04:18.350Z,16.58
2022-09-16T01:06:46.551Z,16.52
2022-09-16T01:09:14.578Z,16.42
2022-09-16T01:11:43.057Z,16.07
2022-09-16T01:14:31.226Z,15.72
2022-09-16T01:17:06.929Z,16.02
2022-09-16T01:19:50.869Z,15.81
2022-09-16T01:22:39.385Z,15.50
2022-09-16T01:25:19.063Z,15.62
2022-09-16T01:28:10.765Z,15.18
2022-09-16T01:30:48.452Z,14.88
2022-09-16T01:33:26.598Z,14.83
2022-09-16T01:36:26.854Z,14.82
2022-09-16T01:39:08.162Z,14.90
2022-09-16T01:41:46.825Z,15.05
2022-09-16T01:44:26.958Z,15.21
2022-09-16T01:47:02.881Z,15.36
2022-09-16T01:49:39.641Z,15.54
2022-09-16T01:52:18.702Z,15.75
2022-09-16T01:54:51.153Z,15.89
2022-09-16T01:57:25.629Z,15.79
2022-09-16T02:00:00.832Z,15.55
2022-09-16T02:02:35.572Z,15.42
2022-09-16T02:05:09.397Z,15.18
2022-09-16T02:07:43.019Z,15.11
2022-09-16T02:10:18.081Z,15.19
2022-09-16T02:12:47.434Z,15.19
2022-09-16T02:15:22.194Z,15.28
2022-09-16T02:17:56.842Z,15.43
2022-09-16T02:20:28.580Z,15.55
2022-09-16T02:23:02.312Z,15.59
2022-09-16T02:25:34.612Z,15.62
2022-09-16T02:28:06.626Z,15.52
2022-09-16T02:30:35.743Z,15.41
2022-09-16T02:33:10.784Z,15.34
2022-09-16T02:35:42.221Z,15.38
2022-09-16T02:38:15.283Z,15.10
2022-09-16T02:40:48.800Z,14.92
2022-09-16T02:43:17.142Z,14.68
2022-09-16T02:45:50.905Z,14.62
2022-09-16T02:48:29.879Z,14.63
2022-09-16T02:51:04.189Z,14.60
2022-09-16T02:53:44.629Z,14.64
2022-09-16T02:56:18.506Z,14.64
2022-09-16T02:58:46.628Z,14.57
2022-09-16T03:01:15.417Z,14.53
2022-09-16T03:03:44.911Z,14.42
2022-09-16T03:06:19.349Z,14.43
2022-09-16T03:08:48.717Z,14.38
2022-09-16T03:11:30.526Z,14.31
2022-09-16T03:14:14.537Z,14.29
2022-09-16T03:16:48.714Z,14.29
2022-09-16T03:19:26.458Z,14.26
2022-09-16T03:22:03.092Z,14.28
2022-09-16T03:24:43.607Z,14.25
2022-09-16T03:27:15.415Z,14.34
2022-09-16T03:29:51.115Z,14.38
2022-09-16T03:32:23.663Z,14.41
2022-09-16T03:34:56.679Z,14.68
2022-09-16T03:37:28.809Z,14.98
2022-09-16T03:39:59.661Z,15.26
2022-09-16T03:42:27.638Z,15.46
2022-09-16T03:44:55.610Z,15.74
2022-09-16T03:47:23.554Z,15.93
2022-09-16T03:49:51.778Z,16.09
2022-09-16T03:52:20.833Z,16.11
2022-09-16T03:54:48.639Z,16.13
2022-09-16T03:57:16.372Z,16.18
2022-09-16T03:59:44.395Z,16.14
2022-09-16T04:02:12.375Z,16.02
2022-09-16T04:04:40.799Z,16.00
2022-09-16T04:07:08.605Z,15.91
2022-09-16T04:09:38.360Z,15.74
2022-09-16T04:12:07.670Z,15.72
2022-09-16T04:14:35.731Z,15.75
2022-09-16T04:17:03.943Z,15.77
2022-09-16T04:19:33.142Z,15.78
2022-09-16T04:22:01.060Z,15.85
2022-09-16T04:24:29.751Z,15.77
2022-09-16T04:26:59.023Z,15.76
2022-09-16T04:29:27.965Z,15.71
2022-09-16T04:31:56.140Z,15.68
2022-09-16T04:34:24.359Z,15.67
2022-09-16T04:36:52.942Z,15.39
2022-09-16T04:39:21.532Z,15.43
2022-09-16T04:41:50.014Z,15.36
2022-09-16T04:44:19.932Z,15.25
2022-09-16T04:46:47.907Z,15.34
2022-09-16T04:49:16.388Z,15.42
2022-09-16T04:51:44.867Z,15.51
2022-09-16T04:54:12.972Z,15.44
2022-09-16T04:56:41.217Z,15.37
2022-09-16T04:59:09.271Z,15.32
2022-09-16T05:01:40.857Z,15.27
2022-09-16T05:04:09.355Z,15.23
2022-09-16T05:06:39.864Z,15.12
2022-09-16T05:09:08.690Z,15.01
2022-09-16T05:11:39.934Z,14.95
2022-09-16T05:14:10.153Z,14.88
2022-09-16T05:16:39.613Z,14.68
2022-09-16T05:19:08.483Z,14.67
2022-09-16T05:21:39.144Z,14.12
2022-09-16T05:24:08.957Z,13.93
2022-09-16T05:26:42.227Z,13.81
2022-09-16T05:29:12.813Z,14.00
2022-09-16T05:31:44.529Z,13.94
2022-09-16T05:34:14.979Z,14.03
2022-09-16T05:36:45.078Z,14.46
2022-09-16T05:39:29.192Z,14.76
2022-09-16T05:41:58.740Z,15.11
2022-09-16T05:44:30.958Z,15.54
2022-09-16T05:47:00.320Z,15.53
2022-09-16T05:49:30.466Z,15.50
2022-09-16T05:51:58.911Z,15.64
2022-09-16T05:54:27.359Z,15.59
2022-09-16T05:56:57.060Z,15.31
2022-09-16T05:59:25.569Z,15.35
2022-09-16T06:01:54.005Z,15.42
2022-09-16T06:04:23.204Z,15.43
2022-09-16T06:06:51.174Z,15.39
2022-09-16T06:09:21.128Z,15.47
2022-09-16T06:11:51.726Z,15.28
2022-09-16T06:14:22.729Z,15.22
2022-09-16T06:16:51.100Z,14.77
2022-09-16T06:19:21.328Z,14.98
2022-09-16T06:21:51.033Z,15.04
2022-09-16T06:24:20.732Z,15.64
2022-09-16T06:26:51.828Z,15.83
2022-09-16T06:29:20.430Z,15.71
2022-09-16T06:31:48.198Z,15.27
2022-09-16T06:34:18.567Z,15.01
2022-09-16T06:36:47.173Z,14.87
2022-09-16T06:39:18.342Z,15.21
2022-09-16T06:41:49.668Z,15.28
2022-09-16T06:44:18.442Z,15.36
2022-09-16T06:46:46.555Z,15.73
2022-09-16T06:49:15.677Z,16.10
2022-09-16T06:51:44.049Z,15.49
2022-09-16T06:54:13.096Z,15.77
2022-09-16T06:56:42.151Z,15.18
2022-09-16T06:59:14.592Z,15.46
2022-09-16T07:01:42.693Z,15.72
2022-09-16T07:04:13.458Z,16.02
2022-09-16T07:07:08.009Z,15.90
2022-09-16T07:09:32.661Z,15.67
2022-09-16T07:12:02.691Z,15.65
2022-09-16T07:14:32.775Z,15.58
2022-09-16T07:17:01.210Z,15.68
2022-09-16T07:19:29.636Z,15.57
2022-09-16T07:22:00.917Z,16.08
2022-09-16T07:24:29.019Z,16.08
2022-09-16T07:26:57.175Z,15.80
2022-09-16T07:29:28.389Z,16.54
2022-09-16T07:31:56.264Z,15.88
2022-09-16T07:34:25.313Z,15.89
2022-09-16T07:36:53.662Z,16.24
2022-09-16T07:39:22.443Z,15.86
2022-09-16T07:41:50.748Z,15.54
2022-09-16T07:44:21.650Z,16.20
2022-09-16T07:46:51.252Z,16.69
2022-09-16T07:49:20.091Z,16.11
2022-09-16T07:51:49.042Z,15.51
2022-09-16T07:54:20.378Z,15.36
2022-09-16T07:56:49.418Z,15.23
2022-09-16T07:59:21.771Z,15.83
2022-09-16T08:01:54.630Z,16.00
2022-09-16T08:04:23.471Z,16.25
2022-09-16T08:06:52.583Z,16.08
2022-09-16T08:09:40.309Z,15.42
2022-09-16T08:12:11.037Z,15.47
2022-09-16T08:14:40.312Z,15.58
2022-09-16T08:17:10.120Z,16.21
2022-09-16T08:19:39.489Z,17.18
2022-09-16T08:22:08.785Z,18.60
2022-09-16T08:24:40.117Z,18.79
2022-09-16T08:27:07.873Z,17.83
2022-09-16T08:29:36.353Z,17.08
2022-09-16T08:32:04.987Z,17.53
2022-09-16T08:34:36.447Z,17.52
2022-09-16T08:37:07.077Z,17.42
2022-09-16T08:39:35.209Z,16.56
2022-09-16T08:42:30.200Z,16.23
2022-09-16T08:45:09.550Z,16.71
2022-09-16T08:47:49.370Z,17.10
2022-09-16T08:50:23.503Z,17.89
2022-09-16T08:52:53.793Z,17.21
2022-09-16T08:55:26.130Z,16.54
2022-09-16T08:57:59.332Z,16.49
2022-09-16T09:00:27.218Z,16.36
2022-09-16T09:02:58.953Z,16.48
2022-09-16T09:05:35.663Z,16.63
2022-09-16T09:08:20.365Z,16.48
2022-09-16T09:10:52.525Z,17.29
2022-09-16T09:13:36.874Z,16.78
2022-09-16T09:16:14.910Z,16.74
2022-09-16T09:18:50.860Z,17.25
2022-09-16T09:21:28.182Z,18.34
2022-09-16T09:24:23.035Z,17.53
2022-09-16T09:26:52.505Z,18.23
2022-09-16T09:29:37.268Z,19.07
2022-09-16T09:32:16.560Z,19.91
2022-09-16T09:35:01.243Z,19.50
2022-09-16T09:37:54.706Z,18.49
2022-09-16T09:40:31.926Z,18.72
2022-09-16T09:43:10.466Z,19.15
2022-09-16T09:45:43.353Z,18.09
2022-09-16T09:48:20.718Z,17.93
2022-09-16T09:50:55.627Z,18.77
2022-09-16T09:53:29.399Z,19.13
2022-09-16T09:56:05.993Z,19.49
2022-09-16T09:58:40.890Z,19.44
2022-09-16T10:01:11.308Z,18.90
2022-09-16T10:03:40.530Z,18.00
2022-09-16T10:06:12.683Z,17.92
2022-09-16T10:08:48.417Z,18.19
2022-09-16T10:11:19.415Z,18.13
2022-09-16T10:13:53.000Z,17.70
2022-09-16T10:16:25.609Z,17.51
2022-09-16T10:19:00.958Z,17.54
2022-09-16T10:21:41.368Z,18.35
2022-09-16T10:24:30.409Z,19.14
2022-09-16T10:26:59.766Z,18.15
2022-09-16T10:29:28.431Z,18.01
2022-09-16T10:32:04.634Z,17.75
2022-09-16T10:34:42.603Z,17.27
2022-09-16T10:37:20.452Z,17.30
2022-09-16T10:39:55.773Z,17.42
2022-09-16T10:42:26.438Z,17.28
2022-09-16T10:44:59.866Z,16.94
2022-09-16T10:47:30.206Z,17.08
2022-09-16T10:50:01.805Z,16.85
2022-09-16T10:52:31.595Z,17.35
2022-09-16T10:55:21.321Z,17.99
2022-09-16T10:57:49.306Z,18.00
2022-09-16T11:00:20.147Z,17.88
2022-09-16T11:03:09.963Z,18.25
2022-09-16T11:05:50.975Z,18.29
2022-09-16T11:08:30.554Z,18.75
2022-09-16T11:11:12.851Z,19.02
2022-09-16T11:13:50.331Z,19.40
2022-09-16T11:16:31.063Z,18.76
2022-09-16T11:19:06.576Z,20.04
2022-09-16T11:21:50.277Z,22.10
2022-09-16T11:24:46.132Z,23.56
2022-09-16T11:27:26.590Z,19.63
2022-09-16T11:30:04.454Z,18.85
2022-09-16T11:33:07.851Z,20.26
2022-09-16T11:36:08.730Z,21.34
2022-09-16T11:38:46.022Z,18.79
2022-09-16T11:41:23.325Z,18.65
2022-09-16T11:44:16.802Z,18.63
2022-09-16T11:46:53.993Z,20.11
2022-09-16T11:49:41.222Z,20.62
2022-09-16T11:52:27.343Z,19.77
2022-09-16T11:55:20.500Z,19.98
2022-09-16T11:57:55.493Z,20.65
2022-09-16T12:00:24.776Z,21.69
2022-09-16T12:03:01.901Z,24.29
2022-09-16T12:05:35.871Z,25.73
2022-09-16T12:08:12.158Z,27.31
2022-09-16T12:10:46.709Z,24.14
2022-09-16T12:13:18.437Z,21.81
2022-09-16T12:15:51.910Z,21.25
2022-09-16T12:18:23.270Z,18.29
2022-09-16T12:20:55.994Z,18.50
2022-09-16T12:23:28.711Z,18.27
2022-09-16T12:26:06.358Z,18.83
2022-09-16T12:28:43.159Z,18.01
2022-09-16T12:31:23.040Z,18.03
2022-09-16T12:33:58.032Z,18.79
2022-09-16T12:36:29.607Z,18.65
2022-09-16T12:39:02.024Z,18.13
2022-09-16T12:42:11.286Z,19.95
2022-09-16T12:45:08.503Z,20.55
2022-09-16T12:48:02.644Z,23.95
2022-09-16T12:51:07.410Z,25.04
2022-09-16T12:53:57.498Z,25.68
2022-09-16T12:56:42.217Z,25.11
2022-09-16T12:59:42.041Z,30.92
2022-09-16T13:02:17.266Z,28.80
2022-09-16T13:04:51.061Z,29.96
2022-09-16T13:07:26.621Z,26.67
2022-09-16T13:10:02.932Z,27.23
2022-09-16T13:12:40.818Z,33.29
2022-09-16T13:15:26.234Z,31.27
2022-09-16T13:17:54.749Z,25.22
2022-09-16T13:20:33.205Z,22.00
2022-09-16T13:23:08.947Z,24.39
2022-09-16T13:25:48.912Z,25.31
2022-09-16T13:28:38.887Z,26.42
2022-09-16T13:31:19.153Z,24.35
2022-09-16T13:33:49.051Z,21.28
2022-09-16T13:36:32.555Z,24.06
2022-09-16T13:39:03.435Z,25.82
2022-09-16T13:41:34.680Z,28.09
2022-09-16T13:44:04.815Z,27.24
2022-09-16T13:46:36.790Z,24.01
2022-09-16T13:49:20.013Z,22.16
2022-09-16T13:51:51.672Z,21.13
2022-09-16T13:54:43.254Z,19.73
2022-09-16T13:57:58.498Z,18.99
2022-09-16T14:00:33.852Z,18.91
2022-09-16T14:03:34.529Z,18.90
2022-09-16T14:06:16.805Z,19.28
2022-09-16T14:08:55.341Z,17.84
2022-09-16T14:11:32.420Z,16.88
2022-09-16T14:14:06.102Z,16.73
2022-09-16T14:16:37.037Z,17.03
2022-09-16T14:19:08.366Z,17.60
2022-09-16T14:21:38.521Z,21.82
2022-09-16T14:24:18.270Z,23.80
2022-09-16T14:26:54.541Z,22.11
2022-09-16T14:29:23.964Z,21.44
2022-09-16T14:31:54.696Z,21.24
2022-09-16T14:34:29.256Z,22.96
2022-09-16T14:37:03.359Z,26.79
2022-09-16T14:39:34.049Z,24.39
2022-09-16T14:42:05.975Z,19.82
2022-09-16T14:44:37.017Z,19.97
2022-09-16T14:47:29.455Z,19.67
2022-09-16T14:50:08.655Z,20.48
2022-09-16T14:52:37.003Z,20.34
2022-09-16T14:55:20.616Z,20.00
2022-09-16T14:57:48.773Z,18.80
2022-09-16T15:00:20.364Z,19.72
2022-09-16T15:02:54.153Z,17.86
2022-09-16T15:05:27.894Z,17.27
2022-09-16T15:08:13.704Z,17.93
2022-09-16T15:10:52.737Z,18.04
2022-09-16T15:13:27.259Z,17.15
2022-09-16T15:16:00.411Z,17.44
2022-09-16T15:18:32.365Z,17.45
2022-09-16T15:21:07.005Z,16.90
2022-09-16T15:23:36.182Z,16.36
2022-09-16T15:26:15.587Z,16.42
2022-09-16T15:28:56.132Z,16.86
2022-09-16T15:31:34.872Z,16.96
2022-09-16T15:34:06.169Z,17.25
2022-09-16T15:36:39.668Z,17.18
2022-09-16T15:39:24.763Z,16.79
2022-09-16T15:42:12.290Z,16.61
2022-09-16T15:44:55.590Z,16.60
2022-09-16T15:47:55.116Z,16.26
2022-09-16T15:50:38.324Z,15.67
2022-09-16T15:56:43.926Z,14.70
2022-09-16T15:59:41.105Z,14.71
2022-09-16T16:05:25.630Z,14.21
2022-09-16T16:07:58.747Z,14.00
2022-09-16T16:10:46.635Z,13.81
2022-09-16T16:13:38.519Z,13.73
2022-09-16T16:22:12.125Z,12.75
2022-09-16T16:24:48.245Z,12.83
2022-09-16T16:57:36.544Z,15.17
2022-09-16T17:07:26.164Z,13.47
2022-09-16T17:11:16.794Z,12.90
2022-09-16T17:14:36.639Z,13.65
2022-09-16T17:45:06.834Z,12.53
2022-09-16T17:47:36.891Z,12.49
2022-09-16T17:50:05.535Z,12.53
2022-09-16T17:52:34.311Z,12.67
2022-09-16T17:55:03.093Z,12.72
2022-09-16T17:57:33.537Z,12.72
2022-09-16T18:00:02.316Z,12.72
2022-09-16T18:02:44.597Z,12.70
2022-09-16T18:05:16.216Z,12.65
2022-09-16T18:07:47.034Z,12.64
2022-09-16T18:10:15.452Z,12.61
2022-09-16T18:12:46.050Z,12.58
2022-09-16T18:15:14.199Z,12.45
2022-09-16T18:17:46.022Z,12.39
2022-09-16T18:20:14.331Z,12.22
2022-09-16T18:22:42.469Z,12.19
2022-09-16T18:25:11.340Z,12.10
2022-09-16T18:27:43.421Z,12.03
2022-09-16T18:30:12.985Z,11.88
2022-09-16T18:32:41.427Z,11.96
2022-09-16T18:35:12.964Z,11.88
2022-09-16T18:37:41.134Z,11.86
2022-09-16T18:40:11.243Z,11.78
2022-09-16T18:42:39.614Z,11.75
2022-09-16T18:45:09.605Z,11.68
2022-09-16T18:47:38.026Z,11.66
2022-09-16T18:50:07.030Z,11.64
2022-09-16T18:52:36.795Z,11.69
2022-09-16T18:55:08.495Z,11.69
2022-09-16T18:57:36.695Z,11.69
2022-09-16T19:00:06.678Z,11.73
2022-09-16T19:02:39.332Z,11.73
2022-09-16T19:05:08.005Z,11.70
2022-09-16T19:07:37.699Z,11.62
2022-09-16T19:10:06.877Z,11.57
2022-09-16T19:12:39.120Z,11.57
2022-09-16T19:15:09.577Z,11.59
2022-09-16T19:17:37.518Z,11.48
2022-09-16T19:20:07.398Z,11.50
2022-09-16T19:22:36.242Z,11.44
2022-09-16T19:25:07.062Z,11.50
2022-09-16T19:27:35.568Z,11.52
2022-09-16T19:30:04.501Z,11.65
2022-09-16T19:32:33.746Z,11.68
2022-09-16T19:35:02.716Z,11.71
2022-09-16T19:37:33.401Z,11.73
2022-09-16T19:40:01.816Z,11.72
2022-09-16T19:42:31.186Z,11.65
2022-09-16T19:44:59.560Z,11.58
2022-09-16T19:47:28.458Z,11.43
2022-09-16T19:49:58.068Z,11.32
2022-09-16T19:52:26.303Z,11.24
2022-09-16T19:54:54.124Z,11.21
2022-09-16T19:57:23.210Z,11.30
2022-09-16T19:59:52.676Z,11.31
2022-09-16T20:02:20.757Z,11.17
2022-09-16T20:04:51.767Z,11.10
2022-09-16T20:07:22.608Z,11.08
2022-09-16T20:09:50.466Z,11.03
2022-09-16T20:12:18.847Z,11.07
2022-09-16T20:14:48.031Z,11.08
2022-09-16T20:17:17.909Z,11.08
2022-09-16T20:19:45.758Z,11.05
2022-09-16T20:22:15.348Z,11.15
2022-09-16T20:24:44.222Z,11.22
2022-09-16T20:27:12.358Z,11.30
2022-09-16T20:29:40.459Z,11.43
2022-09-16T20:32:09.110Z,11.53
2022-09-16T20:34:38.668Z,11.55
2022-09-16T20:37:07.018Z,11.47
2022-09-16T20:39:36.690Z,11.40
2022-09-16T20:42:05.154Z,11.26
2022-09-16T20:44:33.100Z,11.23
2022-09-16T20:47:02.963Z,11.18
2022-09-16T20:49:31.532Z,11.01
2022-09-16T20:52:02.939Z,10.89
2022-09-16T20:54:32.184Z,10.83
2022-09-16T20:57:01.195Z,10.73
2022-09-16T20:59:32.099Z,10.66
2022-09-16T21:02:04.074Z,10.69
2022-09-16T21:04:32.415Z,10.64
2022-09-16T21:07:02.459Z,10.64
2022-09-16T21:09:30.685Z,10.64
2022-09-16T21:11:58.791Z,10.73
2022-09-16T21:14:27.721Z,10.90
2022-09-16T21:16:56.081Z,10.98
2022-09-16T21:19:24.449Z,10.96
2022-09-16T21:21:52.611Z,11.02
2022-09-16T21:24:22.051Z,11.13
2022-09-16T21:26:51.285Z,11.04
2022-09-16T21:29:21.494Z,10.96
2022-09-16T21:31:50.859Z,10.82
2022-09-16T21:34:21.132Z,10.80
2022-09-16T21:36:49.781Z,10.83
2022-09-16T21:39:19.432Z,10.91
2022-09-16T21:41:49.880Z,10.86
2022-09-16T21:44:18.752Z,10.81
2022-09-16T21:46:48.006Z,10.54
2022-09-16T21:49:22.700Z,10.41
2022-09-16T21:51:52.310Z,10.26
2022-09-16T21:54:20.810Z,10.15
2022-09-16T21:56:54.080Z,10.07
2022-09-16T21:59:22.655Z,10.07
2022-09-16T22:01:52.055Z,9.98
2022-09-16T22:04:22.651Z,10.00
2022-09-16T22:06:54.222Z,9.95
2022-09-16T22:09:24.463Z,9.91
2022-09-16T22:11:53.756Z,9.90
2022-09-16T22:14:21.935Z,9.94
2022-09-16T22:16:50.001Z,9.96
2022-09-16T22:19:20.624Z,10.01
2022-09-16T22:21:51.425Z,10.02
2022-09-16T22:24:21.521Z,10.17
2022-09-16T22:26:51.308Z,10.16
2022-09-16T22:29:21.335Z,10.25
2022-09-16T22:31:51.698Z,10.37
2022-09-16T22:34:20.452Z,10.32
2022-09-16T22:36:48.466Z,10.37
2022-09-16T22:39:18.573Z,10.38
2022-09-16T22:41:46.513Z,10.32
2022-09-16T22:44:14.886Z,10.35
2022-09-16T22:46:45.912Z,10.34
2022-09-16T22:49:15.026Z,10.32
2022-09-16T22:51:44.116Z,10.28
2022-09-16T22:54:14.660Z,10.18
2022-09-16T22:56:44.436Z,10.08
2022-09-16T22:59:18.125Z,10.06
2022-09-16T23:01:47.881Z,9.92
2022-09-16T23:04:16.471Z,9.66
2022-09-16T23:06:45.121Z,9.50
2022-09-16T23:09:14.135Z,9.37
2022-09-16T23:11:42.283Z,9.27
2022-09-16T23:14:14.105Z,9.35
2022-09-16T23:16:42.124Z,9.48
2022-09-16T23:19:12.552Z,9.56
2022-09-16T23:21:41.738Z,9.61
2022-09-16T23:24:14.667Z,9.68
2022-09-16T23:26:43.177Z,9.66
2022-09-16T23:29:12.496Z,9.69
2022-09-16T23:31:43.222Z,9.67
2022-09-16T23:34:15.647Z,9.59
2022-09-16T23:36:44.156Z,9.47
2022-09-16T23:39:15.098Z,9.34
2022-09-16T23:41:44.355Z,9.22
2022-09-16T23:44:17.780Z,9.27
2022-09-16T23:46:46.274Z,9.30
2022-09-16T23:49:20.163Z,9.36
2022-09-16T23:51:48.857Z,9.42
2022-09-16T23:54:17.519Z,9.45
2022-09-16T23:56:46.975Z,9.51
2022-09-16T23:59:14.758Z,9.53
